Last 24 Hours

UH Manoa Atmospheric Sciences

15 Minute Data | Pacific/Honolulu
as of 6/21/24 10:43 PM HST
Station Date Time Temp (°F) RH (%) Dew Pt (°F) Wind Spd (mph) Wind Dir (°) Wind Gust (mph) Latest Rain (In) Solar Rad (W/m2) Heat Index (°F) Barometric Press (inHg) Daily Rain (In) Daily Min Temp (°F) Daily Max Temp (°F) Daily Max Wind (mph)
UH Manoa Atmospheric Sciences 6/21/24 2230 76.3 86 72.0 10.0 ENE | 64 18.8 0.01 0 76.3 30.11 0.02 75.7 81.9 28.9
UH Manoa Atmospheric Sciences 6/21/24 2215 76.3 86 71.9 10.8 ENE | 69 21.2 0.01 0 76.3 30.10 0.01 75.7 81.9 28.9
UH Manoa Atmospheric Sciences 6/21/24 2200 76.2 86 71.8 11.5 ENE | 67 18.3 0.00 0 76.2 30.10 0.00 75.7 81.9 28.9
UH Manoa Atmospheric Sciences 6/21/24 2145 76.1 86 71.7 11.3 ENE | 68 21.5 0.00 0 76.1 30.10 0.00 75.7 81.9 28.9
UH Manoa Atmospheric Sciences 6/21/24 2130 76.2 85 71.5 11.0 ENE | 66 20.9 0.00 0 76.2 30.09 0.00 75.7 81.9 28.9
UH Manoa Atmospheric Sciences 6/21/24 2115 76.6 84 71.4 12.1 ENE | 65 21.6 0.00 0 76.6 30.09 0.00 76.4 81.9 28.9
UH Manoa Atmospheric Sciences 6/21/24 2100 77.4 82 71.3 10.5 ENE | 65 19.2 0.00 0 77.4 30.08 0.00 76.4 81.9 28.9
UH Manoa Atmospheric Sciences 6/21/24 2045 77.2 82 71.4 11.7 ENE | 65 20.3 0.00 0 77.2 30.08 0.00 76.4 81.9 28.9
UH Manoa Atmospheric Sciences 6/21/24 2030 76.6 84 71.4 12.5 ENE | 66 22.6 0.00 0 76.6 30.08 0.00 76.4 81.9 28.9
UH Manoa Atmospheric Sciences 6/21/24 2015 76.6 86 72.2 13.0 ENE | 62 27.6 0.00 0 76.6 30.07 0.00 76.4 81.9 28.9
UH Manoa Atmospheric Sciences 6/21/24 2000 76.9 85 72.1 15.0 ENE | 69 25.2 0.00 0 76.9 30.07 0.00 76.4 81.9 28.9
UH Manoa Atmospheric Sciences 6/21/24 1945 77.1 84 72.1 14.5 ENE | 68 27.9 0.00 0 77.1 30.06 0.00 76.6 81.9 28.9
UH Manoa Atmospheric Sciences 6/21/24 1930 77.5 82 71.7 10.5 ENE | 64 18.6 0.00 0 77.5 30.06 0.00 76.6 81.9 28.9
UH Manoa Atmospheric Sciences 6/21/24 1915 77.3 82 71.6 11.3 ENE | 64 23.2 0.00 2 77.3 30.05 0.00 76.6 81.9 28.9
UH Manoa Atmospheric Sciences 6/21/24 1900 76.8 84 71.7 12.4 ENE | 64 21.4 0.00 11 76.8 30.05 0.00 76.6 81.9 28.9
UH Manoa Atmospheric Sciences 6/21/24 1845 76.8 85 72.0 11.9 ENE | 66 24.9 0.00 48 76.8 30.05 0.00 76.6 81.9 28.9
UH Manoa Atmospheric Sciences 6/21/24 1830 77.9 83 72.4 11.2 ENE | 65 20.0 0.00 89 77.9 30.05 0.00 76.7 81.9 28.9
UH Manoa Atmospheric Sciences 6/21/24 1815 78.3 81 71.9 13.1 ENE | 58 23.5 0.00 205 78.3 30.04 0.00 76.7 81.9 28.9
UH Manoa Atmospheric Sciences 6/21/24 1800 78.0 82 71.9 12.6 ENE | 57 24.0 0.00 239 78.0 30.04 0.00 76.7 81.9 28.9
UH Manoa Atmospheric Sciences 6/21/24 1745 77.5 83 72.1 14.6 NE | 54 24.5 0.00 249 77.5 30.04 0.00 76.7 81.9 28.9
UH Manoa Atmospheric Sciences 6/21/24 1730 78.4 82 72.2 11.2 ENE | 61 25.5 0.00 126 78.4 30.05 0.00 76.7 81.9 28.9
UH Manoa Atmospheric Sciences 6/21/24 1715 78.7 81 72.4 9.0 ENE | 67 18.5 0.00 291 78.7 30.05 0.00 76.7 81.9 28.9
UH Manoa Atmospheric Sciences 6/21/24 1700 79.3 78 71.7 9.7 ENE | 61 23.7 0.00 197 79.3 30.05 0.00 76.7 81.9 28.9
UH Manoa Atmospheric Sciences 6/21/24 1645 79.9 75 71.3 12.1 NE | 49 25.8 0.00 395 81.0 30.04 0.00 76.7 81.9 28.9
UH Manoa Atmospheric Sciences 6/21/24 1630 79.5 77 71.6 12.7 NE | 52 28.9 0.00 342 79.6 30.05 0.00 76.7 81.9 28.9
UH Manoa Atmospheric Sciences 6/21/24 1615 79.1 79 72.0 11.3 NE | 51 23.5 0.00 508 79.1 30.05 0.00 76.7 81.9 28.1
UH Manoa Atmospheric Sciences 6/21/24 1600 79.0 80 72.5 10.3 NE | 53 27.4 0.00 393 79.0 30.06 0.00 76.7 81.9 28.1
UH Manoa Atmospheric Sciences 6/21/24 1545 79.6 78 72.0 12.0 NE | 50 28.1 0.00 608 79.6 30.06 0.00 76.7 81.9 28.1
UH Manoa Atmospheric Sciences 6/21/24 1530 79.4 78 72.1 13.7 NE | 38 24.7 0.00 656 79.4 30.06 0.00 76.7 81.9 27.5
UH Manoa Atmospheric Sciences 6/21/24 1515 80.2 78 72.6 9.9 ENE | 62 21.6 0.00 506 82.9 30.06 0.00 76.7 81.9 27.5
UH Manoa Atmospheric Sciences 6/21/24 1500 80.1 78 72.7 10.5 NE | 53 19.2 0.00 813 82.5 30.06 0.00 76.7 81.9 27.5
UH Manoa Atmospheric Sciences 6/21/24 1445 80.7 77 72.9 8.2 ENE | 62 20.1 0.00 563 84.6 30.07 0.00 76.7 81.9 27.5
UH Manoa Atmospheric Sciences 6/21/24 1430 81.3 73 71.9 11.4 NE | 46 22.7 0.00 799 85.7 30.07 0.00 76.7 81.9 27.5
UH Manoa Atmospheric Sciences 6/21/24 1415 81.1 73 71.8 12.5 NE | 44 24.4 0.00 830 85.3 30.08 0.00 76.7 81.9 27.5
UH Manoa Atmospheric Sciences 6/21/24 1400 81.1 73 71.7 12.2 NE | 51 25.9 0.00 960 85.4 30.08 0.00 76.7 81.9 27.5
UH Manoa Atmospheric Sciences 6/21/24 1345 80.4 75 71.6 13.3 NE | 42 26.6 0.00 981 83.8 30.08 0.00 76.7 81.7 27.5
UH Manoa Atmospheric Sciences 6/21/24 1330 80.1 76 71.8 13.4 NE | 38 26.2 0.00 807 82.5 30.09 0.00 76.7 81.7 27.5
UH Manoa Atmospheric Sciences 6/21/24 1315 79.6 78 72.2 9.8 NE | 43 18.8 0.00 802 79.7 30.09 0.00 76.7 81.7 27.5
UH Manoa Atmospheric Sciences 6/21/24 1300 79.7 78 72.4 12.6 NE | 44 24.0 0.00 899 80.0 30.09 0.00 76.7 81.7 27.5
UH Manoa Atmospheric Sciences 6/21/24 1245 79.8 78 72.2 13.3 NE | 44 27.4 0.00 956 80.8 30.09 0.00 76.7 81.7 27.5
UH Manoa Atmospheric Sciences 6/21/24 1230 80.6 76 72.5 7.9 NE | 53 16.8 0.00 636 84.9 30.10 0.00 76.7 81.7 27.5
UH Manoa Atmospheric Sciences 6/21/24 1215 80.7 74 71.5 13.2 NE | 40 26.8 0.00 963 84.6 30.10 0.00 76.7 81.7 27.5
UH Manoa Atmospheric Sciences 6/21/24 1200 80.2 76 71.8 11.3 NE | 42 26.2 0.00 798 82.7 30.10 0.00 76.7 81.7 27.5
UH Manoa Atmospheric Sciences 6/21/24 1145 80.5 73 71.1 10.4 NE | 46 25.5 0.00 602 83.3 30.10 0.00 76.7 81.7 27.5
UH Manoa Atmospheric Sciences 6/21/24 1130 81.1 71 70.9 7.6 NE | 51 14.9 0.00 594 85.0 30.11 0.00 76.7 81.7 27.5
UH Manoa Atmospheric Sciences 6/21/24 1115 80.5 72 70.5 11.9 NE | 48 21.0 0.00 819 84.0 30.11 0.00 76.7 81.1 27.5
UH Manoa Atmospheric Sciences 6/21/24 1100 80.5 72 70.5 9.4 NE | 50 21.3 0.00 738 84.0 30.11 0.00 76.7 81.1 27.5
UH Manoa Atmospheric Sciences 6/21/24 1045 80.4 72 70.6 9.4 NE | 51 19.5 0.00 615 83.0 30.11 0.00 76.7 81.1 27.5
UH Manoa Atmospheric Sciences 6/21/24 1030 80.3 72 70.4 9.2 NE | 50 19.4 0.00 591 82.8 30.11 0.00 76.7 80.8 27.5
UH Manoa Atmospheric Sciences 6/21/24 1015 80.1 72 70.3 8.1 NE | 54 18.2 0.00 544 81.8 30.11 0.00 76.7 80.7 27.5
UH Manoa Atmospheric Sciences 6/21/24 1000 80.0 72 70.2 7.9 NE | 52 15.8 0.00 542 82.3 30.11 0.00 76.7 80.5 27.5
UH Manoa Atmospheric Sciences 6/21/24 0945 79.0 76 70.8 7.3 NE | 52 14.2 0.00 570 79.0 30.11 0.00 76.7 79.5 27.5
UH Manoa Atmospheric Sciences 6/21/24 0930 78.7 77 71.0 6.2 ENE | 59 12.3 0.00 459 78.7 30.11 0.00 76.7 79.5 27.5
UH Manoa Atmospheric Sciences 6/21/24 0915 78.7 76 70.7 5.4 NE | 52 10.5 0.00 509 78.7 30.11 0.00 76.7 79.5 27.5
UH Manoa Atmospheric Sciences 6/21/24 0900 78.9 74 70.1 7.6 NE | 53 14.8 0.00 359 78.9 30.10 0.00 76.7 79.5 27.5
UH Manoa Atmospheric Sciences 6/21/24 0845 78.7 75 70.3 7.9 ENE | 59 15.0 0.00 255 78.7 30.10 0.00 76.7 79.0 27.5
UH Manoa Atmospheric Sciences 6/21/24 0830 78.3 76 70.2 10.8 NE | 56 20.5 0.00 184 78.3 30.10 0.00 76.7 78.8 27.5
UH Manoa Atmospheric Sciences 6/21/24 0815 78.3 76 70.1 7.3 ENE | 60 14.6 0.00 198 78.3 30.10 0.00 76.7 78.8 27.5
UH Manoa Atmospheric Sciences 6/21/24 0800 78.0 77 70.1 8.4 NE | 52 16.0 0.00 205 78.0 30.10 0.00 76.7 78.3 27.5
UH Manoa Atmospheric Sciences 6/21/24 0745 77.7 77 70.2 6.6 NE | 53 13.6 0.00 118 77.7 30.10 0.00 76.7 78.3 27.5
UH Manoa Atmospheric Sciences 6/21/24 0730 77.7 77 69.8 10.3 NE | 53 22.6 0.00 88 77.7 30.09 0.00 76.7 78.3 27.5
UH Manoa Atmospheric Sciences 6/21/24 0715 77.4 78 70.0 11.6 ENE | 57 26.3 0.00 52 77.4 30.09 0.00 76.7 78.3 27.5
UH Manoa Atmospheric Sciences 6/21/24 0700 77.5 77 69.9 9.3 ENE | 58 23.2 0.00 51 77.5 30.09 0.00 76.7 78.3 27.5
UH Manoa Atmospheric Sciences 6/21/24 0645 78.0 75 69.4 7.7 ENE | 59 20.5 0.00 35 78.0 30.09 0.00 76.7 78.3 27.5
UH Manoa Atmospheric Sciences 6/21/24 0630 77.9 74 69.1 8.4 ENE | 58 19.4 0.00 19 77.9 30.08 0.00 76.7 78.3 27.5
UH Manoa Atmospheric Sciences 6/21/24 0615 77.4 77 69.4 8.9 ENE | 61 19.8 0.00 8 77.4 30.08 0.00 76.7 78.0 27.5
UH Manoa Atmospheric Sciences 6/21/24 0600 77.1 77 69.5 7.4 ENE | 63 16.0 0.00 2 77.1 30.08 0.00 76.7 78.0 27.5
UH Manoa Atmospheric Sciences 6/21/24 0545 77.0 78 69.5 9.0 ENE | 59 18.6 0.00 0 77.0 30.07 0.00 76.7 78.0 27.5
UH Manoa Atmospheric Sciences 6/21/24 0530 77.0 77 69.2 8.8 ENE | 58 20.7 0.00 0 77.0 30.07 0.00 76.7 78.0 27.5
UH Manoa Atmospheric Sciences 6/21/24 0515 77.1 77 69.2 11.4 ENE | 57 27.5 0.00 0 77.1 30.06 0.00 76.7 78.0 27.5
UH Manoa Atmospheric Sciences 6/21/24 0500 77.7 74 68.8 8.5 ENE | 60 18.2 0.00 0 77.7 30.06 0.00 76.7 78.0 27.0
UH Manoa Atmospheric Sciences 6/21/24 0445 77.8 72 68.2 10.1 ENE | 64 20.8 0.00 0 77.8 30.06 0.00 76.7 78.0 27.0
UH Manoa Atmospheric Sciences 6/21/24 0430 77.7 73 68.3 9.1 ENE | 58 19.7 0.00 0 77.7 30.06 0.00 76.7 77.9 27.0
UH Manoa Atmospheric Sciences 6/21/24 0415 77.6 72 68.0 9.2 ENE | 64 22.3 0.00 0 77.6 30.06 0.00 76.7 77.9 27.0
UH Manoa Atmospheric Sciences 6/21/24 0400 77.5 73 68.3 8.6 ENE | 62 15.9 0.00 0 77.5 30.06 0.00 76.7 77.8 27.0
UH Manoa Atmospheric Sciences 6/21/24 0345 77.4 73 68.2 8.9 ENE | 65 18.3 0.00 0 77.4 30.06 0.00 76.7 77.6 27.0
UH Manoa Atmospheric Sciences 6/21/24 0330 77.3 73 67.9 7.3 ENE | 67 16.0 0.00 0 77.3 30.06 0.00 76.7 77.6 27.0
UH Manoa Atmospheric Sciences 6/21/24 0315 77.3 73 68.0 8.3 ENE | 58 16.8 0.00 0 77.3 30.06 0.00 76.7 77.6 27.0
UH Manoa Atmospheric Sciences 6/21/24 0300 77.1 73 68.0 7.5 ENE | 67 16.6 0.00 0 77.1 30.06 0.00 76.7 77.3 27.0
UH Manoa Atmospheric Sciences 6/21/24 0245 77.0 74 68.1 7.7 ENE | 59 16.9 0.00 0 77.0 30.07 0.00 76.7 77.3 27.0
UH Manoa Atmospheric Sciences 6/21/24 0230 77.0 73 67.7 8.4 ENE | 62 18.8 0.00 0 77.0 30.07 0.00 76.7 77.3 27.0
UH Manoa Atmospheric Sciences 6/21/24 0215 77.0 73 67.5 10.2 ENE | 68 17.7 0.00 0 77.0 30.07 0.00 76.7 77.3 27.0
UH Manoa Atmospheric Sciences 6/21/24 0200 77.0 73 67.8 9.4 ENE | 57 18.1 0.00 0 77.0 30.07 0.00 76.7 77.3 27.0
UH Manoa Atmospheric Sciences 6/21/24 0145 77.0 73 67.6 9.3 ENE | 63 25.2 0.00 0 77.0 30.08 0.00 76.7 77.3 27.0
UH Manoa Atmospheric Sciences 6/21/24 0130 77.0 73 67.5 11.5 NE | 53 27.0 0.00 0 77.0 30.08 0.00 76.7 77.3 27.0
UH Manoa Atmospheric Sciences 6/21/24 0115 76.9 72 67.3 10.7 NE | 55 24.1 0.00 0 76.9 30.08 0.00 76.7 77.3 26.9
UH Manoa Atmospheric Sciences 6/21/24 0100 77.0 73 67.6 9.9 NE | 56 26.9 0.00 0 77.0 30.09 0.00 76.7 77.3 26.9
UH Manoa Atmospheric Sciences 6/21/24 0045 77.1 73 67.7 9.7 NE | 50 17.1 0.00 0 77.1 30.09 0.00 76.8 77.3 18.0
UH Manoa Atmospheric Sciences 6/21/24 0030 76.9 72 67.1 8.8 ENE | 60 18.0 0.00 0 76.9 30.09 0.00 76.8 77.3 18.0
UH Manoa Atmospheric Sciences 6/21/24 0015 77.1 72 67.3 8.8 ENE | 65 17.4 0.00 0 77.1 30.10 0.00 76.9 77.3 17.4
UH Manoa Atmospheric Sciences 6/21/24 0000 77.2 72 67.4 7.3 ENE | 61 18.5 0.00 0 77.2 30.10 0.01 73.6 82.4 32.3
UH Manoa Atmospheric Sciences 6/20/24 2345 77.2 72 67.4 7.9 ENE | 59 15.6 0.00 0 77.2 30.11 0.01 73.6 82.4 32.3
UH Manoa Atmospheric Sciences 6/20/24 2330 77.3 73 67.8 9.4 ENE | 69 18.2 0.00 0 77.3 30.11 0.01 73.6 82.4 32.3
UH Manoa Atmospheric Sciences 6/20/24 2315 77.4 73 68.1 9.2 NE | 56 17.9 0.00 0 77.4 30.11 0.01 73.6 82.4 32.3
UH Manoa Atmospheric Sciences 6/20/24 2300 77.5 74 68.6 8.4 ENE | 58 23.0 0.00 0 77.5 30.11 0.01 73.6 82.4 32.3
UH Manoa Atmospheric Sciences 6/20/24 2245 77.6 74 68.7 9.9 NE | 56 24.1 0.00 0 77.6 30.11 0.01 73.6 82.4 32.3
UH Manoa Atmospheric Sciences 6/20/24 2230 77.6 74 68.6 11.6 NE | 52 27.6 0.00 0 77.6 30.11 0.01 73.6 82.4 32.3
Max     81.3 86 72.9 15.0 - 28.9 0.01 981 85.7 30.11 0.02 76.9 82.4 32.3
Avg     78.2 77 70.3 10.1 - 21.0 0.00 246 78.9 30.08 - - - -
Min     76.1 71 67.1 5.4 - 10.5 0.00 0 76.1 30.04 0.00 73.6 77.3 17.4